createdAt,value
2019-05-19T00:00:12.068Z,29.80
2019-05-19T00:02:41.144Z,30.07
2019-05-19T00:05:10.132Z,28.73
2019-05-19T00:07:38.966Z,32.17
2019-05-19T00:10:07.857Z,31.00
2019-05-19T00:12:36.731Z,31.43
2019-05-19T00:15:05.690Z,30.77
2019-05-19T00:17:34.595Z,32.27
2019-05-19T00:20:03.501Z,30.47
2019-05-19T00:22:32.297Z,31.60
2019-05-19T00:25:20.406Z,34.40
2019-05-19T00:27:49.247Z,29.47
2019-05-19T00:30:18.203Z,33.23
2019-05-19T00:32:47.433Z,31.57
2019-05-19T00:35:16.341Z,31.23
2019-05-19T00:37:45.169Z,32.33
2019-05-19T00:40:14.325Z,30.93
2019-05-19T00:42:43.163Z,32.10
2019-05-19T00:45:12.992Z,31.00
2019-05-19T00:47:41.893Z,31.37
2019-05-19T00:50:10.820Z,31.70
2019-05-19T00:52:39.711Z,31.07
2019-05-19T00:55:08.538Z,33.23
2019-05-19T00:57:37.473Z,30.83
2019-05-19T01:00:06.948Z,31.97
2019-05-19T01:02:35.789Z,32.43
2019-05-19T01:05:05.082Z,31.77
2019-05-19T01:07:34.073Z,29.80
2019-05-19T01:10:02.919Z,31.50
2019-05-19T01:12:31.723Z,31.43
2019-05-19T01:15:00.502Z,32.23
2019-05-19T01:17:29.335Z,31.03
2019-05-19T01:19:58.152Z,31.70
2019-05-19T01:22:26.959Z,33.13
2019-05-19T01:24:55.774Z,32.27
2019-05-19T01:27:24.607Z,31.40
2019-05-19T01:29:54.470Z,32.13
2019-05-19T01:32:23.305Z,31.27
2019-05-19T01:34:52.196Z,31.37
2019-05-19T01:37:21.161Z,32.73
2019-05-19T01:39:50.436Z,31.53
2019-05-19T01:42:19.259Z,31.70
2019-05-19T01:44:48.043Z,30.57
2019-05-19T01:47:16.860Z,32.17
2019-05-19T01:49:46.020Z,31.27
2019-05-19T01:52:14.864Z,33.10
2019-05-19T01:54:43.753Z,32.33
2019-05-19T01:57:12.557Z,32.57
2019-05-19T01:59:41.462Z,30.53
2019-05-19T02:02:10.338Z,30.40
2019-05-19T02:04:39.136Z,31.43
2019-05-19T02:07:07.934Z,30.83
2019-05-19T02:09:36.758Z,31.03
2019-05-19T02:12:05.556Z,30.00
2019-05-19T02:14:34.841Z,31.33
2019-05-19T02:17:03.837Z,31.50
2019-05-19T02:19:32.635Z,31.20
2019-05-19T02:22:01.454Z,31.43
2019-05-19T02:24:30.313Z,31.03
2019-05-19T02:26:59.120Z,30.43
2019-05-19T02:29:27.939Z,30.60
2019-05-19T02:31:56.874Z,30.40
2019-05-19T02:34:25.667Z,28.77
2019-05-19T02:36:54.483Z,28.87
2019-05-19T02:39:23.268Z,29.67
2019-05-19T02:41:52.039Z,29.20
2019-05-19T02:44:20.886Z,28.37
2019-05-19T02:46:49.673Z,28.37
2019-05-19T02:49:18.559Z,27.90
2019-05-19T02:51:47.678Z,27.50
2019-05-19T02:54:16.618Z,27.87
2019-05-19T02:56:45.468Z,26.70
2019-05-19T02:59:14.373Z,27.03
2019-05-19T03:02:03.928Z,28.03
2019-05-19T03:04:32.835Z,26.23
2019-05-19T03:07:01.733Z,26.07
2019-05-19T03:09:30.622Z,25.63
2019-05-19T03:11:59.417Z,26.33
2019-05-19T03:14:28.206Z,24.77
2019-05-19T03:16:57.002Z,24.37
2019-05-19T03:19:25.867Z,24.97
2019-05-19T03:21:54.761Z,24.47
2019-05-19T03:24:23.640Z,24.53
2019-05-19T03:26:52.523Z,23.20
2019-05-19T03:29:25.888Z,25.67
2019-05-19T03:32:11.262Z,25.73
2019-05-19T03:34:34.595Z,24.13
2019-05-19T03:37:03.472Z,24.83
2019-05-19T03:39:32.270Z,22.47
2019-05-19T03:42:01.096Z,24.50
2019-05-19T03:44:30.035Z,23.27
2019-05-19T03:46:58.809Z,23.90
2019-05-19T03:49:27.636Z,22.20
2019-05-19T03:51:56.430Z,23.57
2019-05-19T03:54:25.243Z,23.13
2019-05-19T03:56:54.064Z,22.73
2019-05-19T03:59:22.828Z,23.83
2019-05-19T04:01:51.624Z,22.13
2019-05-19T04:04:20.440Z,21.57
2019-05-19T04:06:49.298Z,22.87
2019-05-19T04:09:18.199Z,21.40
2019-05-19T04:11:46.999Z,21.23
2019-05-19T04:14:15.800Z,22.37
2019-05-19T04:16:44.591Z,22.30
2019-05-19T04:19:13.563Z,22.40
2019-05-19T04:21:48.699Z,20.37
2019-05-19T04:24:12.892Z,21.13
2019-05-19T04:26:41.785Z,21.67
2019-05-19T04:29:10.580Z,20.73
2019-05-19T04:31:39.388Z,20.63
2019-05-19T04:34:08.331Z,20.67
2019-05-19T04:36:37.191Z,19.63
2019-05-19T04:39:07.442Z,20.40
2019-05-19T04:41:39.867Z,19.90
2019-05-19T04:44:06.846Z,19.07
2019-05-19T04:46:35.780Z,19.53
2019-05-19T04:49:04.700Z,18.93
2019-05-19T04:51:33.490Z,19.77
2019-05-19T04:54:02.304Z,19.37
2019-05-19T04:56:31.174Z,19.90
2019-05-19T04:59:00.038Z,18.73
2019-05-19T05:01:29.004Z,18.30
2019-05-19T05:03:57.803Z,17.73
2019-05-19T05:06:26.592Z,16.87
2019-05-19T05:08:55.434Z,18.20
2019-05-19T05:11:24.304Z,18.73
2019-05-19T05:13:53.088Z,16.97
2019-05-19T05:16:21.994Z,18.27
2019-05-19T05:18:50.786Z,17.13
2019-05-19T05:21:19.620Z,17.67
2019-05-19T05:23:48.471Z,18.60
2019-05-19T05:26:17.264Z,18.07
2019-05-19T05:28:46.101Z,17.90
2019-05-19T05:31:15.664Z,17.93
2019-05-19T05:34:04.016Z,17.50
2019-05-19T05:36:32.961Z,16.70
2019-05-19T05:39:01.781Z,18.57
2019-05-19T05:41:30.575Z,18.50
2019-05-19T05:43:59.400Z,17.17
2019-05-19T05:46:28.267Z,17.17
2019-05-19T05:48:57.081Z,17.00
2019-05-19T05:51:25.967Z,17.57
2019-05-19T05:53:54.762Z,17.57
2019-05-19T05:56:23.585Z,17.50
2019-05-19T05:58:52.411Z,16.70
2019-05-19T06:01:21.277Z,17.00
2019-05-19T06:03:50.077Z,16.90
2019-05-19T06:06:19.036Z,17.03
2019-05-19T06:08:47.857Z,16.10
2019-05-19T06:11:16.764Z,15.03
2019-05-19T06:13:45.564Z,14.97
2019-05-19T06:16:14.434Z,16.07
2019-05-19T06:18:43.223Z,15.47
2019-05-19T06:21:12.025Z,14.80
2019-05-19T06:23:40.823Z,14.47
2019-05-19T06:26:09.637Z,13.97
2019-05-19T06:28:38.473Z,13.83
2019-05-19T06:31:07.435Z,13.43
2019-05-19T06:33:36.319Z,13.30
2019-05-19T06:36:05.255Z,14.50
2019-05-19T06:38:34.108Z,13.47
2019-05-19T06:41:03.063Z,12.60
2019-05-19T06:43:32.222Z,12.83
2019-05-19T06:46:04.687Z,12.73
2019-05-19T06:48:33.557Z,12.57
2019-05-19T06:51:02.375Z,13.40
2019-05-19T06:53:31.286Z,12.97
2019-05-19T06:56:00.141Z,12.03
2019-05-19T06:58:29.240Z,12.40
2019-05-19T07:00:59.199Z,12.27
2019-05-19T07:03:28.240Z,11.80
2019-05-19T07:05:57.129Z,12.73
2019-05-19T07:08:26.397Z,11.97
2019-05-19T07:10:55.356Z,11.00
2019-05-19T07:13:24.232Z,11.87
2019-05-19T07:15:54.211Z,11.63
2019-05-19T07:18:23.288Z,11.90
2019-05-19T07:20:52.168Z,11.83
2019-05-19T07:23:28.121Z,11.57
2019-05-19T07:25:52.593Z,11.10
2019-05-19T07:28:21.730Z,12.20
2019-05-19T07:30:50.623Z,10.63
2019-05-19T07:33:19.761Z,12.70
2019-05-19T07:35:48.654Z,10.10
2019-05-19T07:38:17.468Z,11.43
2019-05-19T07:40:46.356Z,10.60
2019-05-19T07:43:15.214Z,11.10
2019-05-19T07:45:44.059Z,9.67
2019-05-19T07:48:13.892Z,10.03
2019-05-19T07:50:42.702Z,11.27
2019-05-19T07:53:11.553Z,10.47
2019-05-19T07:55:40.467Z,9.77
2019-05-19T07:58:11.191Z,9.87
2019-05-19T08:03:33.252Z,9.73
2019-05-19T08:06:02.473Z,9.30
2019-05-19T08:08:31.615Z,9.50
2019-05-19T08:11:00.602Z,9.03
2019-05-19T08:13:29.590Z,8.53
2019-05-19T08:15:58.619Z,8.63
2019-05-19T08:18:27.510Z,9.27
2019-05-19T08:20:56.321Z,9.67
2019-05-19T08:23:25.676Z,9.10
2019-05-19T08:25:54.773Z,9.20
2019-05-19T08:28:23.596Z,9.43
2019-05-19T08:30:52.729Z,9.63
2019-05-19T08:33:21.615Z,9.87
2019-05-19T08:35:50.613Z,9.17
2019-05-19T08:38:20.373Z,9.40
2019-05-19T08:40:49.249Z,9.37
2019-05-19T08:43:18.106Z,10.53
2019-05-19T08:45:47.013Z,9.73
2019-05-19T08:48:15.890Z,10.23
2019-05-19T08:50:44.775Z,9.63
2019-05-19T08:53:13.713Z,10.60
2019-05-19T08:55:42.578Z,10.43
2019-05-19T08:58:11.498Z,10.97
2019-05-19T09:00:40.451Z,10.70
2019-05-19T09:03:15.656Z,10.80
2019-05-19T09:05:47.820Z,11.30
2019-05-19T09:08:15.190Z,11.07
2019-05-19T09:10:50.443Z,11.23
2019-05-19T09:13:21.001Z,12.20
2019-05-19T09:15:50.196Z,11.23
2019-05-19T09:18:19.652Z,13.00
2019-05-19T09:20:48.595Z,12.53
2019-05-19T09:23:17.525Z,12.40
2019-05-19T09:25:46.394Z,14.70
2019-05-19T09:28:15.760Z,13.23
2019-05-19T09:30:44.607Z,14.43
2019-05-19T09:33:13.600Z,14.50
2019-05-19T09:35:42.555Z,14.57
2019-05-19T09:38:11.482Z,14.97
2019-05-19T09:40:40.357Z,15.87
2019-05-19T09:43:09.220Z,17.53
2019-05-19T09:45:38.075Z,17.87
2019-05-19T09:48:07.145Z,17.67
2019-05-19T09:50:36.035Z,17.47
2019-05-19T09:53:04.847Z,18.17
2019-05-19T09:55:33.736Z,16.93
2019-05-19T09:58:04.147Z,18.47
2019-05-19T10:00:33.464Z,18.33
2019-05-19T10:03:02.282Z,19.03
2019-05-19T10:05:31.103Z,19.73
2019-05-19T10:08:26.347Z,19.63
2019-05-19T10:11:24.254Z,21.30
2019-05-19T10:13:53.136Z,21.13
2019-05-19T10:16:21.930Z,20.93
2019-05-19T10:18:50.726Z,21.07
2019-05-19T10:21:38.813Z,22.00
2019-05-19T10:24:07.729Z,21.97
2019-05-19T10:26:36.723Z,22.40
2019-05-19T10:29:05.641Z,20.60
2019-05-19T10:31:34.436Z,20.20
2019-05-19T10:34:03.379Z,21.30
2019-05-19T10:36:32.314Z,20.10
2019-05-19T10:39:01.273Z,20.33
2019-05-19T10:41:30.606Z,20.23
2019-05-19T10:44:02.501Z,21.03
2019-05-19T10:46:31.434Z,20.10
2019-05-19T10:49:00.332Z,19.77
2019-05-19T10:51:29.165Z,18.57
2019-05-19T10:53:58.073Z,18.73
2019-05-19T10:56:26.924Z,19.20
2019-05-19T10:58:55.802Z,19.03
2019-05-19T11:01:24.665Z,19.40
2019-05-19T11:03:53.523Z,18.10
2019-05-19T11:06:22.363Z,18.03
2019-05-19T11:08:51.211Z,18.43
2019-05-19T11:11:20.024Z,17.50
2019-05-19T11:13:48.849Z,17.50
2019-05-19T11:16:17.667Z,17.23
2019-05-19T11:18:46.796Z,16.33
2019-05-19T11:21:15.676Z,16.07
2019-05-19T11:23:44.570Z,15.97
2019-05-19T11:26:13.573Z,15.57
2019-05-19T11:28:42.366Z,17.23
2019-05-19T11:31:11.179Z,16.73
2019-05-19T11:33:39.999Z,16.10
2019-05-19T11:36:09.283Z,16.20
2019-05-19T11:38:38.151Z,16.13
2019-05-19T11:41:07.020Z,16.07
2019-05-19T11:43:47.706Z,16.53
2019-05-19T11:46:16.573Z,16.13
2019-05-19T11:48:45.684Z,15.43
2019-05-19T11:51:14.911Z,15.43
2019-05-19T11:53:43.867Z,17.33
2019-05-19T11:56:12.639Z,15.60
2019-05-19T11:58:41.592Z,16.70
2019-05-19T12:01:10.555Z,16.33
2019-05-19T12:03:39.569Z,17.00
2019-05-19T12:06:08.588Z,15.77
2019-05-19T12:08:37.424Z,16.20
2019-05-19T12:11:06.337Z,15.00
2019-05-19T12:13:35.383Z,15.57
2019-05-19T12:16:04.474Z,15.73
2019-05-19T12:18:33.296Z,15.40
2019-05-19T12:21:02.183Z,15.53
2019-05-19T12:23:31.071Z,16.00
2019-05-19T12:25:59.987Z,15.53
2019-05-19T12:28:29.020Z,14.97
2019-05-19T12:30:57.823Z,15.80
2019-05-19T12:33:26.832Z,15.43
2019-05-19T12:35:55.610Z,15.07
2019-05-19T12:38:24.439Z,15.47
2019-05-19T12:40:53.276Z,16.37
2019-05-19T12:43:22.140Z,15.60
2019-05-19T12:45:51.015Z,16.40
2019-05-19T12:48:20.078Z,17.10
2019-05-19T12:50:48.971Z,16.00
2019-05-19T12:53:17.803Z,17.43
2019-05-19T12:55:46.733Z,17.97
2019-05-19T12:58:15.537Z,17.73
2019-05-19T13:00:44.416Z,18.77
2019-05-19T13:03:13.257Z,18.60
2019-05-19T13:05:42.141Z,18.83
2019-05-19T13:08:11.570Z,18.63
2019-05-19T13:10:40.698Z,19.17
2019-05-19T13:13:09.600Z,19.13
2019-05-19T13:15:38.426Z,19.17
2019-05-19T13:18:07.470Z,20.40
2019-05-19T13:20:36.345Z,20.20
2019-05-19T13:23:05.289Z,19.53
2019-05-19T13:25:34.132Z,19.57
2019-05-19T13:28:03.856Z,20.43
2019-05-19T13:30:32.760Z,20.07
2019-05-19T13:33:01.597Z,20.50
2019-05-19T13:35:30.415Z,21.23
2019-05-19T13:37:59.478Z,20.20
2019-05-19T13:40:28.446Z,20.67
2019-05-19T13:42:57.373Z,20.83
2019-05-19T13:45:26.246Z,20.00
2019-05-19T13:47:55.645Z,20.43
2019-05-19T13:50:24.585Z,19.53
2019-05-19T13:52:53.463Z,20.03
2019-05-19T13:55:22.294Z,20.80
2019-05-19T13:57:51.094Z,20.73
2019-05-19T14:00:20.345Z,20.13
2019-05-19T14:02:49.252Z,20.40
2019-05-19T14:05:18.057Z,19.33
2019-05-19T14:07:46.864Z,20.77
2019-05-19T14:10:15.683Z,19.63
2019-05-19T14:12:44.557Z,19.23
2019-05-19T14:15:13.449Z,18.83
2019-05-19T14:17:42.391Z,19.73
2019-05-19T14:20:30.546Z,19.73
2019-05-19T14:22:59.592Z,20.03
2019-05-19T14:25:28.451Z,20.10
2019-05-19T14:27:57.335Z,19.17
2019-05-19T14:30:26.165Z,18.27
2019-05-19T14:32:57.539Z,19.57
2019-05-19T14:35:25.656Z,20.40
2019-05-19T14:37:54.463Z,20.20
2019-05-19T14:40:23.280Z,20.37
2019-05-19T14:42:56.457Z,20.20
2019-05-19T14:45:25.432Z,21.03
2019-05-19T14:47:55.583Z,21.37
2019-05-19T14:50:24.731Z,20.70
2019-05-19T14:52:53.545Z,21.30
2019-05-19T14:55:22.373Z,20.90
2019-05-19T14:57:51.366Z,22.80
2019-05-19T15:00:22.153Z,22.00
2019-05-19T15:02:50.962Z,21.53
2019-05-19T15:05:19.886Z,22.13
2019-05-19T15:07:48.807Z,22.63
2019-05-19T15:10:18.938Z,21.97
2019-05-19T15:12:47.853Z,22.03
2019-05-19T15:15:16.795Z,22.00
2019-05-19T15:17:45.643Z,22.20
2019-05-19T15:20:14.521Z,22.30
2019-05-19T15:22:43.446Z,21.40
2019-05-19T15:25:12.435Z,21.63
2019-05-19T15:27:41.465Z,22.90
2019-05-19T15:30:13.706Z,20.77
2019-05-19T15:32:41.042Z,20.37
2019-05-19T15:35:09.901Z,20.17
2019-05-19T15:37:38.754Z,19.40
2019-05-19T15:40:08.238Z,18.97
2019-05-19T15:42:37.178Z,20.20
2019-05-19T15:45:06.222Z,19.40
2019-05-19T15:47:35.028Z,20.57
2019-05-19T15:50:05.715Z,19.70
2019-05-19T15:52:34.824Z,19.37
2019-05-19T15:55:03.644Z,18.20
2019-05-19T15:57:32.581Z,18.87
2019-05-19T16:00:02.725Z,17.97
2019-05-19T16:02:32.313Z,18.40
2019-05-19T16:05:01.279Z,17.60
2019-05-19T16:07:30.197Z,19.30
2019-05-19T16:09:59.134Z,19.20
2019-05-19T16:12:27.957Z,18.10
2019-05-19T16:14:56.904Z,17.63
2019-05-19T16:17:25.843Z,17.73
2019-05-19T16:19:54.669Z,17.47
2019-05-19T16:22:23.644Z,18.57
2019-05-19T16:24:52.551Z,17.10
2019-05-19T16:27:21.480Z,16.83
2019-05-19T16:29:50.541Z,16.77
2019-05-19T16:32:19.419Z,16.43
2019-05-19T16:34:48.272Z,16.27
2019-05-19T16:37:17.185Z,16.10
2019-05-19T16:39:45.960Z,17.70
2019-05-19T16:42:14.787Z,17.53
2019-05-19T19:23:14.456Z,17.27
2019-05-19T19:25:44.262Z,21.82
2019-05-19T19:28:13.133Z,19.23
2019-05-19T19:30:42.575Z,17.40
2019-05-19T19:33:12.131Z,17.37
2019-05-19T19:35:40.958Z,17.00
2019-05-19T19:38:10.035Z,16.00
2019-05-19T19:40:38.932Z,16.10
2019-05-19T19:43:07.750Z,16.93
2019-05-19T19:45:36.638Z,16.87
2019-05-19T19:48:05.651Z,16.73
2019-05-19T19:50:35.032Z,15.67
2019-05-19T19:53:04.795Z,16.03
2019-05-19T19:55:33.624Z,15.20
2019-05-19T19:58:02.574Z,15.50
2019-05-19T20:00:42.364Z,16.10
2019-05-19T20:03:11.599Z,16.10
2019-05-19T20:05:40.676Z,16.00
2019-05-19T20:08:09.969Z,16.60
2019-05-19T20:10:38.932Z,17.80
2019-05-19T20:13:07.810Z,17.60
2019-05-19T20:15:37.713Z,17.70
2019-05-19T20:18:12.224Z,16.70
2019-05-19T20:20:41.160Z,16.70
2019-05-19T20:23:10.091Z,19.23
2019-05-19T20:25:38.916Z,17.50
2019-05-19T20:28:07.826Z,17.07
2019-05-19T20:30:37.143Z,19.53
2019-05-19T20:33:06.451Z,17.77
2019-05-19T20:35:35.450Z,17.60
2019-05-19T20:38:04.349Z,18.13
2019-05-19T20:40:33.352Z,17.93
2019-05-19T20:43:02.773Z,18.80
2019-05-19T20:45:31.893Z,20.13
2019-05-19T20:48:00.991Z,20.70
2019-05-19T20:50:30.096Z,18.40
2019-05-19T20:52:59.218Z,19.00
2019-05-19T20:55:28.181Z,19.23
2019-05-19T20:58:34.079Z,17.50
2019-05-19T21:01:03.356Z,19.67
2019-05-19T21:03:32.947Z,19.70
2019-05-19T21:06:04.729Z,19.03
2019-05-19T21:08:33.788Z,20.17
2019-05-19T21:11:02.755Z,20.37
2019-05-19T21:13:31.579Z,19.93
2019-05-19T21:16:00.535Z,20.43
2019-05-19T21:18:30.165Z,22.17
2019-05-19T21:20:59.010Z,22.63
2019-05-19T21:23:27.932Z,24.67
2019-05-19T21:25:56.725Z,21.00
2019-05-19T21:28:31.073Z,25.30
2019-05-19T21:31:06.047Z,25.20
2019-05-19T21:33:30.757Z,23.73
2019-05-19T21:35:59.628Z,25.53
2019-05-19T21:38:28.549Z,24.43
2019-05-19T21:40:57.748Z,25.50
2019-05-19T21:43:26.741Z,22.97
2019-05-19T21:45:55.618Z,26.07
2019-05-19T21:48:35.145Z,26.60
2019-05-19T21:51:04.272Z,25.70
2019-05-19T21:53:33.154Z,24.93
2019-05-19T21:56:02.012Z,25.20
2019-05-19T21:58:30.844Z,26.20
2019-05-19T22:00:59.899Z,28.10
2019-05-19T22:03:29.441Z,25.90
2019-05-19T22:05:58.766Z,26.33
2019-05-19T22:08:27.766Z,27.07
2019-05-19T22:10:56.690Z,25.60
2019-05-19T22:13:25.893Z,25.27
2019-05-19T22:16:10.147Z,25.83
2019-05-19T22:18:25.432Z,26.30
2019-05-19T22:20:54.473Z,26.20
2019-05-19T22:23:23.752Z,25.90
2019-05-19T22:25:52.616Z,24.93
2019-05-19T22:28:21.506Z,26.17
2019-05-19T22:30:55.095Z,24.53
2019-05-19T22:33:24.164Z,24.30
2019-05-19T22:35:53.060Z,25.03
2019-05-19T22:38:22.370Z,24.90
2019-05-19T22:40:51.192Z,24.87
2019-05-19T22:43:20.067Z,24.23
2019-05-19T22:45:48.891Z,24.00
2019-05-19T22:48:17.753Z,23.83
2019-05-19T22:50:46.623Z,23.80
2019-05-19T22:53:15.766Z,25.17
2019-05-19T22:55:44.618Z,23.90
2019-05-19T22:58:13.811Z,23.60
2019-05-19T23:00:42.778Z,23.57
2019-05-19T23:03:11.557Z,23.23
2019-05-19T23:05:40.471Z,22.83
2019-05-19T23:08:09.407Z,21.40
2019-05-19T23:10:38.260Z,21.33
2019-05-19T23:13:08.365Z,22.03
2019-05-19T23:15:37.409Z,22.17
2019-05-19T23:18:06.488Z,21.83
2019-05-19T23:20:35.362Z,21.53
2019-05-19T23:23:04.278Z,20.70
2019-05-19T23:25:33.076Z,21.40
2019-05-19T23:28:01.883Z,20.17
2019-05-19T23:30:30.980Z,20.10
2019-05-19T23:32:59.839Z,20.33
2019-05-19T23:35:29.240Z,20.40
2019-05-19T23:37:58.074Z,19.40
2019-05-19T23:40:26.856Z,18.70
2019-05-19T23:42:55.756Z,18.90
2019-05-19T23:45:24.556Z,18.97
2019-05-19T23:47:54.348Z,18.13
2019-05-19T23:50:23.128Z,17.97
2019-05-19T23:52:51.958Z,17.33
2019-05-19T23:55:21.051Z,18.17
2019-05-19T23:57:49.871Z,17.30
